sensor_id;sensor_type;location;lat;lon;timestamp;P1;durP1;ratioP1;P2;durP2;ratioP2
42134;SDS011;28312;43.460;11.810;2023-12-20T00:01:19;10.60;;;6.78;;
42134;SDS011;28312;43.460;11.810;2023-12-20T00:05:23;6.00;;;4.30;;
42134;SDS011;28312;43.460;11.810;2023-12-20T00:09:26;6.43;;;3.95;;
42134;SDS011;28312;43.460;11.810;2023-12-20T00:13:30;6.20;;;3.72;;
42134;SDS011;28312;43.460;11.810;2023-12-20T00:17:34;4.22;;;2.65;;
42134;SDS011;28312;43.460;11.810;2023-12-20T00:21:39;4.85;;;2.83;;
42134;SDS011;28312;43.460;11.810;2023-12-20T00:25:42;5.38;;;4.20;;
42134;SDS011;28312;43.460;11.810;2023-12-20T00:29:46;8.27;;;3.95;;
42134;SDS011;28312;43.460;11.810;2023-12-20T00:33:52;5.60;;;4.10;;
42134;SDS011;28312;43.460;11.810;2023-12-20T00:37:56;5.13;;;3.08;;
42134;SDS011;28312;43.460;11.810;2023-12-20T00:42:00;5.32;;;2.45;;
42134;SDS011;28312;43.460;11.810;2023-12-20T00:46:04;7.07;;;3.35;;
42134;SDS011;28312;43.460;11.810;2023-12-20T00:50:08;5.22;;;3.25;;
42134;SDS011;28312;43.460;11.810;2023-12-20T00:54:12;3.17;;;2.53;;
42134;SDS011;28312;43.460;11.810;2023-12-20T00:58:16;6.03;;;4.03;;
42134;SDS011;28312;43.460;11.810;2023-12-20T01:02:20;8.70;;;5.38;;
42134;SDS011;28312;43.460;11.810;2023-12-20T01:06:23;9.98;;;5.57;;
42134;SDS011;28312;43.460;11.810;2023-12-20T01:10:27;6.70;;;3.03;;
42134;SDS011;28312;43.460;11.810;2023-12-20T01:14:32;7.30;;;5.25;;
42134;SDS011;28312;43.460;11.810;2023-12-20T01:18:36;10.30;;;5.35;;
42134;SDS011;28312;43.460;11.810;2023-12-20T01:22:40;7.22;;;4.35;;
42134;SDS011;28312;43.460;11.810;2023-12-20T01:26:45;6.53;;;3.17;;
42134;SDS011;28312;43.460;11.810;2023-12-20T01:30:49;5.40;;;3.30;;
42134;SDS011;28312;43.460;11.810;2023-12-20T01:34:53;6.82;;;3.35;;
42134;SDS011;28312;43.460;11.810;2023-12-20T01:38:59;5.13;;;3.50;;
42134;SDS011;28312;43.460;11.810;2023-12-20T01:43:08;5.60;;;3.57;;
42134;SDS011;28312;43.460;11.810;2023-12-20T01:47:12;3.88;;;2.40;;
42134;SDS011;28312;43.460;11.810;2023-12-20T01:51:16;4.72;;;2.67;;
42134;SDS011;28312;43.460;11.810;2023-12-20T01:55:21;8.35;;;4.65;;
42134;SDS011;28312;43.460;11.810;2023-12-20T01:59:25;6.07;;;3.17;;
42134;SDS011;28312;43.460;11.810;2023-12-20T02:03:34;3.80;;;3.15;;
42134;SDS011;28312;43.460;11.810;2023-12-20T02:07:39;10.15;;;3.97;;
42134;SDS011;28312;43.460;11.810;2023-12-20T02:11:43;5.80;;;3.28;;
42134;SDS011;28312;43.460;11.810;2023-12-20T02:15:47;4.97;;;2.85;;
42134;SDS011;28312;43.460;11.810;2023-12-20T02:19:50;8.55;;;4.07;;
42134;SDS011;28312;43.460;11.810;2023-12-20T02:23:54;3.38;;;2.17;;
42134;SDS011;28312;43.460;11.810;2023-12-20T02:27:58;5.85;;;3.65;;
42134;SDS011;28312;43.460;11.810;2023-12-20T02:32:02;7.00;;;4.20;;
42134;SDS011;28312;43.460;11.810;2023-12-20T02:36:06;4.05;;;2.85;;
42134;SDS011;28312;43.460;11.810;2023-12-20T02:40:10;4.75;;;2.95;;
42134;SDS011;28312;43.460;11.810;2023-12-20T02:44:14;5.47;;;3.30;;
42134;SDS011;28312;43.460;11.810;2023-12-20T02:48:18;4.32;;;3.42;;
42134;SDS011;28312;43.460;11.810;2023-12-20T02:52:22;7.85;;;4.60;;
42134;SDS011;28312;43.460;11.810;2023-12-20T02:56:27;9.10;;;6.32;;
42134;SDS011;28312;43.460;11.810;2023-12-20T03:00:30;3.35;;;2.10;;
42134;SDS011;28312;43.460;11.810;2023-12-20T03:04:34;3.85;;;2.30;;
42134;SDS011;28312;43.460;11.810;2023-12-20T03:08:37;7.55;;;4.03;;
42134;SDS011;28312;43.460;11.810;2023-12-20T03:12:42;5.85;;;3.95;;
42134;SDS011;28312;43.460;11.810;2023-12-20T03:16:49;2.92;;;1.92;;
42134;SDS011;28312;43.460;11.810;2023-12-20T03:20:53;7.95;;;6.15;;
42134;SDS011;28312;43.460;11.810;2023-12-20T03:24:57;3.92;;;2.25;;
42134;SDS011;28312;43.460;11.810;2023-12-20T03:29:00;4.43;;;2.58;;
42134;SDS011;28312;43.460;11.810;2023-12-20T03:33:04;8.82;;;4.88;;
42134;SDS011;28312;43.460;11.810;2023-12-20T03:37:08;2.88;;;1.70;;
42134;SDS011;28312;43.460;11.810;2023-12-20T03:41:11;3.97;;;2.38;;
42134;SDS011;28312;43.460;11.810;2023-12-20T03:45:15;4.63;;;3.67;;
42134;SDS011;28312;43.460;11.810;2023-12-20T03:49:19;5.88;;;4.25;;
42134;SDS011;28312;43.460;11.810;2023-12-20T03:53:23;4.53;;;3.20;;
42134;SDS011;28312;43.460;11.810;2023-12-20T03:57:27;2.95;;;1.67;;
42134;SDS011;28312;43.460;11.810;2023-12-20T04:01:30;3.50;;;2.00;;
42134;SDS011;28312;43.460;11.810;2023-12-20T04:05:34;5.85;;;3.35;;
42134;SDS011;28312;43.460;11.810;2023-12-20T04:09:38;6.03;;;4.32;;
42134;SDS011;28312;43.460;11.810;2023-12-20T04:13:43;12.57;;;8.38;;
42134;SDS011;28312;43.460;11.810;2023-12-20T04:17:46;12.13;;;7.10;;
42134;SDS011;28312;43.460;11.810;2023-12-20T04:21:51;6.53;;;3.38;;
42134;SDS011;28312;43.460;11.810;2023-12-20T04:25:54;4.82;;;2.80;;
42134;SDS011;28312;43.460;11.810;2023-12-20T04:29:58;3.67;;;2.35;;
42134;SDS011;28312;43.460;11.810;2023-12-20T04:34:07;4.28;;;2.10;;
42134;SDS011;28312;43.460;11.810;2023-12-20T04:38:11;4.20;;;2.97;;
42134;SDS011;28312;43.460;11.810;2023-12-20T04:42:15;6.38;;;3.70;;
42134;SDS011;28312;43.460;11.810;2023-12-20T04:46:18;3.55;;;2.25;;
42134;SDS011;28312;43.460;11.810;2023-12-20T04:50:22;3.70;;;2.65;;
42134;SDS011;28312;43.460;11.810;2023-12-20T04:54:26;7.10;;;2.80;;
42134;SDS011;28312;43.460;11.810;2023-12-20T04:58:30;7.47;;;4.68;;
42134;SDS011;28312;43.460;11.810;2023-12-20T05:02:36;4.15;;;2.47;;
42134;SDS011;28312;43.460;11.810;2023-12-20T05:06:40;5.70;;;2.60;;
42134;SDS011;28312;43.460;11.810;2023-12-20T05:10:44;4.05;;;3.35;;
42134;SDS011;28312;43.460;11.810;2023-12-20T05:14:47;6.63;;;3.10;;
42134;SDS011;28312;43.460;11.810;2023-12-20T05:18:52;6.78;;;5.22;;
42134;SDS011;28312;43.460;11.810;2023-12-20T05:22:57;4.22;;;2.42;;
42134;SDS011;28312;43.460;11.810;2023-12-20T05:27:00;6.07;;;3.55;;
42134;SDS011;28312;43.460;11.810;2023-12-20T05:31:04;11.07;;;8.35;;
42134;SDS011;28312;43.460;11.810;2023-12-20T05:35:08;7.82;;;5.97;;
42134;SDS011;28312;43.460;11.810;2023-12-20T05:39:12;7.30;;;4.50;;
42134;SDS011;28312;43.460;11.810;2023-12-20T05:43:16;5.95;;;3.88;;
42134;SDS011;28312;43.460;11.810;2023-12-20T05:47:20;6.85;;;4.22;;
42134;SDS011;28312;43.460;11.810;2023-12-20T05:51:24;12.18;;;7.22;;
42134;SDS011;28312;43.460;11.810;2023-12-20T05:55:28;7.65;;;4.10;;
42134;SDS011;28312;43.460;11.810;2023-12-20T05:59:32;6.72;;;4.25;;
42134;SDS011;28312;43.460;11.810;2023-12-20T06:03:35;6.05;;;3.40;;
42134;SDS011;28312;43.460;11.810;2023-12-20T06:07:39;3.35;;;2.20;;
42134;SDS011;28312;43.460;11.810;2023-12-20T06:11:42;5.38;;;2.95;;
42134;SDS011;28312;43.460;11.810;2023-12-20T06:15:46;7.75;;;3.97;;
42134;SDS011;28312;43.460;11.810;2023-12-20T06:19:49;4.93;;;4.03;;
42134;SDS011;28312;43.460;11.810;2023-12-20T06:23:53;5.50;;;4.10;;
42134;SDS011;28312;43.460;11.810;2023-12-20T06:27:57;9.07;;;6.32;;
42134;SDS011;28312;43.460;11.810;2023-12-20T06:32:01;9.68;;;3.90;;
42134;SDS011;28312;43.460;11.810;2023-12-20T06:36:05;9.60;;;5.90;;
42134;SDS011;28312;43.460;11.810;2023-12-20T06:40:09;11.10;;;6.72;;
42134;SDS011;28312;43.460;11.810;2023-12-20T06:44:20;3.75;;;2.75;;
42134;SDS011;28312;43.460;11.810;2023-12-20T06:48:23;4.95;;;3.22;;
42134;SDS011;28312;43.460;11.810;2023-12-20T06:52:28;4.38;;;2.78;;
42134;SDS011;28312;43.460;11.810;2023-12-20T06:56:31;3.65;;;2.72;;
42134;SDS011;28312;43.460;11.810;2023-12-20T07:00:35;3.88;;;2.88;;
42134;SDS011;28312;43.460;11.810;2023-12-20T07:04:42;10.38;;;6.60;;
42134;SDS011;28312;43.460;11.810;2023-12-20T07:08:45;4.15;;;2.70;;
42134;SDS011;28312;43.460;11.810;2023-12-20T07:12:49;3.72;;;2.28;;
42134;SDS011;28312;43.460;11.810;2023-12-20T07:16:54;3.20;;;2.05;;
42134;SDS011;28312;43.460;11.810;2023-12-20T07:20:57;3.80;;;2.00;;
42134;SDS011;28312;43.460;11.810;2023-12-20T07:25:01;4.45;;;1.70;;
42134;SDS011;28312;43.460;11.810;2023-12-20T07:29:05;4.72;;;2.92;;
42134;SDS011;28312;43.460;11.810;2023-12-20T07:33:09;3.50;;;2.30;;
42134;SDS011;28312;43.460;11.810;2023-12-20T07:37:15;4.07;;;2.30;;
42134;SDS011;28312;43.460;11.810;2023-12-20T07:41:19;2.83;;;1.73;;
42134;SDS011;28312;43.460;11.810;2023-12-20T07:45:24;9.95;;;7.05;;
42134;SDS011;28312;43.460;11.810;2023-12-20T07:49:27;8.88;;;6.60;;
42134;SDS011;28312;43.460;11.810;2023-12-20T07:53:31;15.77;;;10.98;;
42134;SDS011;28312;43.460;11.810;2023-12-20T07:57:35;21.33;;;11.65;;
42134;SDS011;28312;43.460;11.810;2023-12-20T08:01:39;11.68;;;6.35;;
42134;SDS011;28312;43.460;11.810;2023-12-20T08:05:46;25.33;;;14.70;;
42134;SDS011;28312;43.460;11.810;2023-12-20T08:09:49;16.10;;;10.73;;
42134;SDS011;28312;43.460;11.810;2023-12-20T08:13:54;9.88;;;7.82;;
42134;SDS011;28312;43.460;11.810;2023-12-20T08:17:58;11.82;;;7.80;;
42134;SDS011;28312;43.460;11.810;2023-12-20T08:22:01;14.35;;;8.73;;
42134;SDS011;28312;43.460;11.810;2023-12-20T08:26:05;12.23;;;8.98;;
42134;SDS011;28312;43.460;11.810;2023-12-20T08:30:10;13.57;;;8.63;;
42134;SDS011;28312;43.460;11.810;2023-12-20T08:34:14;16.23;;;9.57;;
42134;SDS011;28312;43.460;11.810;2023-12-20T08:38:18;9.48;;;6.45;;
42134;SDS011;28312;43.460;11.810;2023-12-20T08:42:25;7.97;;;6.38;;
42134;SDS011;28312;43.460;11.810;2023-12-20T08:46:33;10.13;;;6.70;;
42134;SDS011;28312;43.460;11.810;2023-12-20T08:50:38;9.70;;;7.65;;
42134;SDS011;28312;43.460;11.810;2023-12-20T08:54:42;11.15;;;8.65;;
42134;SDS011;28312;43.460;11.810;2023-12-20T08:58:47;15.27;;;12.05;;
42134;SDS011;28312;43.460;11.810;2023-12-20T09:02:50;22.20;;;18.20;;
42134;SDS011;28312;43.460;11.810;2023-12-20T09:06:59;23.90;;;13.32;;
42134;SDS011;28312;43.460;11.810;2023-12-20T09:11:03;12.82;;;10.32;;
42134;SDS011;28312;43.460;11.810;2023-12-20T09:15:07;12.75;;;7.60;;
42134;SDS011;28312;43.460;11.810;2023-12-20T09:19:10;10.60;;;7.80;;
42134;SDS011;28312;43.460;11.810;2023-12-20T09:23:15;12.23;;;9.35;;
42134;SDS011;28312;43.460;11.810;2023-12-20T09:27:19;9.90;;;7.85;;
42134;SDS011;28312;43.460;11.810;2023-12-20T09:31:23;11.90;;;8.55;;
42134;SDS011;28312;43.460;11.810;2023-12-20T09:35:27;10.55;;;7.90;;
42134;SDS011;28312;43.460;11.810;2023-12-20T09:39:31;15.63;;;9.25;;
42134;SDS011;28312;43.460;11.810;2023-12-20T09:43:37;10.73;;;7.13;;
42134;SDS011;28312;43.460;11.810;2023-12-20T09:47:43;13.27;;;6.43;;
42134;SDS011;28312;43.460;11.810;2023-12-20T09:51:49;9.32;;;7.03;;
42134;SDS011;28312;43.460;11.810;2023-12-20T09:55:55;7.93;;;6.45;;
42134;SDS011;28312;43.460;11.810;2023-12-20T10:00:03;12.65;;;7.85;;
42134;SDS011;28312;43.460;11.810;2023-12-20T10:04:13;15.60;;;9.02;;
42134;SDS011;28312;43.460;11.810;2023-12-20T10:08:32;12.35;;;9.25;;
42134;SDS011;28312;43.460;11.810;2023-12-20T10:12:36;9.60;;;6.85;;
42134;SDS011;28312;43.460;11.810;2023-12-20T10:16:40;9.25;;;6.35;;
42134;SDS011;28312;43.460;11.810;2023-12-20T10:20:44;15.07;;;9.82;;
42134;SDS011;28312;43.460;11.810;2023-12-20T10:24:48;11.63;;;9.30;;
42134;SDS011;28312;43.460;11.810;2023-12-20T10:28:56;13.85;;;10.73;;
42134;SDS011;28312;43.460;11.810;2023-12-20T10:33:03;10.90;;;8.93;;
42134;SDS011;28312;43.460;11.810;2023-12-20T10:37:09;11.45;;;8.73;;
42134;SDS011;28312;43.460;11.810;2023-12-20T10:41:13;18.60;;;13.98;;
42134;SDS011;28312;43.460;11.810;2023-12-20T10:45:19;14.20;;;10.60;;
42134;SDS011;28312;43.460;11.810;2023-12-20T10:49:23;22.50;;;17.40;;
42134;SDS011;28312;43.460;11.810;2023-12-20T10:53:29;14.93;;;11.38;;
42134;SDS011;28312;43.460;11.810;2023-12-20T10:57:33;12.05;;;8.52;;
42134;SDS011;28312;43.460;11.810;2023-12-20T11:01:39;18.83;;;12.43;;
42134;SDS011;28312;43.460;11.810;2023-12-20T11:15:06;19.23;;;12.88;;
42134;SDS011;28312;43.460;11.810;2023-12-20T11:24:05;21.10;;;15.98;;
42134;SDS011;28312;43.460;11.810;2023-12-20T11:28:37;17.27;;;12.60;;
42134;SDS011;28312;43.460;11.810;2023-12-20T11:32:43;12.13;;;8.98;;
42134;SDS011;28312;43.460;11.810;2023-12-20T11:36:50;12.88;;;10.48;;
42134;SDS011;28312;43.460;11.810;2023-12-20T11:41:05;14.43;;;10.00;;
42134;SDS011;28312;43.460;11.810;2023-12-20T11:45:15;12.35;;;9.77;;
42134;SDS011;28312;43.460;11.810;2023-12-20T11:49:25;11.02;;;9.70;;
42134;SDS011;28312;43.460;11.810;2023-12-20T11:53:29;17.02;;;12.10;;
42134;SDS011;28312;43.460;11.810;2023-12-20T11:57:35;12.63;;;10.17;;
42134;SDS011;28312;43.460;11.810;2023-12-20T12:01:40;13.82;;;10.23;;
42134;SDS011;28312;43.460;11.810;2023-12-20T12:05:51;15.43;;;12.02;;
42134;SDS011;28312;43.460;11.810;2023-12-20T12:09:54;18.00;;;13.13;;
42134;SDS011;28312;43.460;11.810;2023-12-20T12:13:58;16.17;;;12.77;;
42134;SDS011;28312;43.460;11.810;2023-12-20T12:18:02;18.23;;;12.23;;
42134;SDS011;28312;43.460;11.810;2023-12-20T12:22:13;19.05;;;12.93;;
42134;SDS011;28312;43.460;11.810;2023-12-20T12:26:19;17.38;;;12.98;;
42134;SDS011;28312;43.460;11.810;2023-12-20T12:30:23;13.05;;;11.10;;
42134;SDS011;28312;43.460;11.810;2023-12-20T12:38:36;15.77;;;11.05;;
42134;SDS011;28312;43.460;11.810;2023-12-20T12:42:42;14.20;;;10.23;;
42134;SDS011;28312;43.460;11.810;2023-12-20T12:46:47;12.83;;;9.27;;
42134;SDS011;28312;43.460;11.810;2023-12-20T12:50:54;13.30;;;10.52;;
42134;SDS011;28312;43.460;11.810;2023-12-20T12:55:01;14.65;;;10.68;;
42134;SDS011;28312;43.460;11.810;2023-12-20T13:03:12;10.63;;;8.50;;
42134;SDS011;28312;43.460;11.810;2023-12-20T13:07:15;16.00;;;10.02;;
42134;SDS011;28312;43.460;11.810;2023-12-20T13:11:19;10.70;;;8.52;;
42134;SDS011;28312;43.460;11.810;2023-12-20T13:15:22;12.57;;;7.22;;
42134;SDS011;28312;43.460;11.810;2023-12-20T13:19:27;16.58;;;12.18;;
42134;SDS011;28312;43.460;11.810;2023-12-20T13:23:32;13.68;;;9.10;;
42134;SDS011;28312;43.460;11.810;2023-12-20T13:27:39;12.98;;;8.88;;
42134;SDS011;28312;43.460;11.810;2023-12-20T13:31:44;16.05;;;10.90;;
42134;SDS011;28312;43.460;11.810;2023-12-20T13:35:50;10.15;;;8.98;;
42134;SDS011;28312;43.460;11.810;2023-12-20T13:39:53;9.25;;;6.53;;
42134;SDS011;28312;43.460;11.810;2023-12-20T13:43:57;13.27;;;8.30;;
42134;SDS011;28312;43.460;11.810;2023-12-20T13:48:01;11.60;;;8.23;;
42134;SDS011;28312;43.460;11.810;2023-12-20T13:52:05;16.42;;;10.20;;
42134;SDS011;28312;43.460;11.810;2023-12-20T13:56:09;11.55;;;7.45;;
42134;SDS011;28312;43.460;11.810;2023-12-20T14:00:13;11.52;;;8.23;;
42134;SDS011;28312;43.460;11.810;2023-12-20T14:04:17;16.63;;;11.95;;
42134;SDS011;28312;43.460;11.810;2023-12-20T14:08:41;9.48;;;6.65;;
42134;SDS011;28312;43.460;11.810;2023-12-20T14:12:45;12.85;;;8.02;;
42134;SDS011;28312;43.460;11.810;2023-12-20T14:16:49;6.00;;;5.25;;
42134;SDS011;28312;43.460;11.810;2023-12-20T14:20:52;17.48;;;8.68;;
42134;SDS011;28312;43.460;11.810;2023-12-20T14:24:57;6.22;;;4.40;;
42134;SDS011;28312;43.460;11.810;2023-12-20T14:29:01;10.52;;;6.20;;
42134;SDS011;28312;43.460;11.810;2023-12-20T14:33:05;11.07;;;7.13;;
42134;SDS011;28312;43.460;11.810;2023-12-20T14:37:08;7.43;;;4.80;;
42134;SDS011;28312;43.460;11.810;2023-12-20T14:41:12;7.15;;;5.75;;
42134;SDS011;28312;43.460;11.810;2023-12-20T14:45:15;5.68;;;4.15;;
42134;SDS011;28312;43.460;11.810;2023-12-20T14:49:19;13.15;;;7.78;;
42134;SDS011;28312;43.460;11.810;2023-12-20T14:53:23;6.05;;;3.92;;
42134;SDS011;28312;43.460;11.810;2023-12-20T14:57:28;7.47;;;4.25;;
42134;SDS011;28312;43.460;11.810;2023-12-20T15:01:32;5.20;;;3.85;;
42134;SDS011;28312;43.460;11.810;2023-12-20T15:05:36;7.45;;;4.65;;
42134;SDS011;28312;43.460;11.810;2023-12-20T15:09:40;6.35;;;4.65;;
42134;SDS011;28312;43.460;11.810;2023-12-20T15:13:48;4.70;;;3.58;;
42134;SDS011;28312;43.460;11.810;2023-12-20T15:17:57;7.40;;;4.88;;
42134;SDS011;28312;43.460;11.810;2023-12-20T15:22:01;6.03;;;3.08;;
42134;SDS011;28312;43.460;11.810;2023-12-20T15:26:07;10.07;;;6.97;;
42134;SDS011;28312;43.460;11.810;2023-12-20T15:30:10;5.85;;;4.20;;
42134;SDS011;28312;43.460;11.810;2023-12-20T15:34:14;4.70;;;3.10;;
42134;SDS011;28312;43.460;11.810;2023-12-20T15:38:23;5.38;;;3.67;;
42134;SDS011;28312;43.460;11.810;2023-12-20T15:42:27;7.28;;;4.55;;
42134;SDS011;28312;43.460;11.810;2023-12-20T15:57:10;17.00;;;11.70;;
42134;SDS011;28312;43.460;11.810;2023-12-20T16:01:14;13.05;;;9.23;;
42134;SDS011;28312;43.460;11.810;2023-12-20T16:05:18;10.48;;;6.82;;
42134;SDS011;28312;43.460;11.810;2023-12-20T16:09:22;8.60;;;6.15;;
42134;SDS011;28312;43.460;11.810;2023-12-20T16:13:26;6.97;;;5.68;;
42134;SDS011;28312;43.460;11.810;2023-12-20T16:17:29;8.90;;;6.03;;
42134;SDS011;28312;43.460;11.810;2023-12-20T16:21:34;6.32;;;4.80;;
42134;SDS011;28312;43.460;11.810;2023-12-20T16:25:38;5.78;;;4.55;;
42134;SDS011;28312;43.460;11.810;2023-12-20T16:29:42;5.72;;;4.38;;
42134;SDS011;28312;43.460;11.810;2023-12-20T16:33:46;7.15;;;4.72;;
42134;SDS011;28312;43.460;11.810;2023-12-20T16:37:50;8.18;;;4.35;;
42134;SDS011;28312;43.460;11.810;2023-12-20T16:41:54;6.78;;;4.57;;
42134;SDS011;28312;43.460;11.810;2023-12-20T16:45:57;6.28;;;4.47;;
42134;SDS011;28312;43.460;11.810;2023-12-20T16:50:02;7.57;;;3.97;;
42134;SDS011;28312;43.460;11.810;2023-12-20T16:54:08;6.18;;;3.92;;
42134;SDS011;28312;43.460;11.810;2023-12-20T16:58:12;5.55;;;3.47;;
42134;SDS011;28312;43.460;11.810;2023-12-20T17:02:16;6.45;;;3.95;;
42134;SDS011;28312;43.460;11.810;2023-12-20T17:06:20;10.55;;;4.68;;
42134;SDS011;28312;43.460;11.810;2023-12-20T17:10:23;7.35;;;4.35;;
42134;SDS011;28312;43.460;11.810;2023-12-20T17:14:28;9.15;;;5.47;;
42134;SDS011;28312;43.460;11.810;2023-12-20T17:18:32;8.18;;;5.03;;
42134;SDS011;28312;43.460;11.810;2023-12-20T17:22:36;5.72;;;3.65;;
42134;SDS011;28312;43.460;11.810;2023-12-20T17:26:40;5.22;;;3.90;;
42134;SDS011;28312;43.460;11.810;2023-12-20T17:30:44;7.65;;;4.00;;
42134;SDS011;28312;43.460;11.810;2023-12-20T17:34:49;6.95;;;4.38;;
42134;SDS011;28312;43.460;11.810;2023-12-20T17:38:53;9.85;;;6.43;;
42134;SDS011;28312;43.460;11.810;2023-12-20T17:42:56;10.45;;;6.95;;
42134;SDS011;28312;43.460;11.810;2023-12-20T17:47:00;5.30;;;3.63;;
42134;SDS011;28312;43.460;11.810;2023-12-20T17:51:04;5.18;;;3.90;;
42134;SDS011;28312;43.460;11.810;2023-12-20T17:55:08;6.50;;;4.13;;
42134;SDS011;28312;43.460;11.810;2023-12-20T17:59:11;8.10;;;5.15;;
42134;SDS011;28312;43.460;11.810;2023-12-20T18:03:15;9.07;;;3.75;;
42134;SDS011;28312;43.460;11.810;2023-12-20T18:07:18;7.10;;;5.43;;
42134;SDS011;28312;43.460;11.810;2023-12-20T18:11:22;8.23;;;5.00;;
42134;SDS011;28312;43.460;11.810;2023-12-20T18:15:26;6.55;;;3.72;;
42134;SDS011;28312;43.460;11.810;2023-12-20T18:19:29;5.95;;;4.57;;
42134;SDS011;28312;43.460;11.810;2023-12-20T18:23:33;6.25;;;4.43;;
42134;SDS011;28312;43.460;11.810;2023-12-20T18:27:37;8.93;;;6.75;;
42134;SDS011;28312;43.460;11.810;2023-12-20T18:31:42;8.73;;;5.35;;
42134;SDS011;28312;43.460;11.810;2023-12-20T18:35:47;9.32;;;6.22;;
42134;SDS011;28312;43.460;11.810;2023-12-20T18:39:52;6.13;;;3.88;;
42134;SDS011;28312;43.460;11.810;2023-12-20T18:43:57;10.18;;;5.68;;
42134;SDS011;28312;43.460;11.810;2023-12-20T18:48:01;10.35;;;4.95;;
42134;SDS011;28312;43.460;11.810;2023-12-20T18:52:06;13.82;;;6.60;;
42134;SDS011;28312;43.460;11.810;2023-12-20T18:56:10;8.90;;;5.07;;
42134;SDS011;28312;43.460;11.810;2023-12-20T19:00:13;8.73;;;6.13;;
42134;SDS011;28312;43.460;11.810;2023-12-20T19:04:17;15.27;;;9.52;;
42134;SDS011;28312;43.460;11.810;2023-12-20T19:08:21;12.52;;;8.93;;
42134;SDS011;28312;43.460;11.810;2023-12-20T19:12:24;12.15;;;7.88;;
42134;SDS011;28312;43.460;11.810;2023-12-20T19:16:28;17.13;;;10.63;;
42134;SDS011;28312;43.460;11.810;2023-12-20T19:20:32;27.70;;;17.08;;
42134;SDS011;28312;43.460;11.810;2023-12-20T19:24:35;12.98;;;9.15;;
42134;SDS011;28312;43.460;11.810;2023-12-20T19:28:40;14.68;;;8.13;;
42134;SDS011;28312;43.460;11.810;2023-12-20T19:32:46;15.57;;;9.25;;
42134;SDS011;28312;43.460;11.810;2023-12-20T19:36:50;9.98;;;6.57;;
42134;SDS011;28312;43.460;11.810;2023-12-20T19:40:54;15.50;;;9.45;;
42134;SDS011;28312;43.460;11.810;2023-12-20T19:44:57;10.23;;;6.40;;
42134;SDS011;28312;43.460;11.810;2023-12-20T19:49:01;13.38;;;8.02;;
42134;SDS011;28312;43.460;11.810;2023-12-20T19:53:10;8.90;;;5.85;;
42134;SDS011;28312;43.460;11.810;2023-12-20T19:57:14;9.15;;;5.35;;
42134;SDS011;28312;43.460;11.810;2023-12-20T20:01:19;6.35;;;4.53;;
42134;SDS011;28312;43.460;11.810;2023-12-20T20:05:24;8.82;;;5.28;;
42134;SDS011;28312;43.460;11.810;2023-12-20T20:09:28;13.60;;;6.85;;
42134;SDS011;28312;43.460;11.810;2023-12-20T20:13:32;6.97;;;4.65;;
42134;SDS011;28312;43.460;11.810;2023-12-20T20:17:36;7.60;;;4.43;;
42134;SDS011;28312;43.460;11.810;2023-12-20T20:21:41;6.88;;;4.15;;
42134;SDS011;28312;43.460;11.810;2023-12-20T20:25:45;17.50;;;11.57;;
42134;SDS011;28312;43.460;11.810;2023-12-20T20:29:49;8.50;;;5.30;;
42134;SDS011;28312;43.460;11.810;2023-12-20T20:33:53;9.95;;;5.88;;
42134;SDS011;28312;43.460;11.810;2023-12-20T20:37:57;10.18;;;5.45;;
42134;SDS011;28312;43.460;11.810;2023-12-20T20:42:00;10.75;;;5.15;;
42134;SDS011;28312;43.460;11.810;2023-12-20T20:46:04;9.65;;;5.47;;
42134;SDS011;28312;43.460;11.810;2023-12-20T20:50:08;8.40;;;4.18;;
42134;SDS011;28312;43.460;11.810;2023-12-20T20:54:13;6.90;;;5.35;;
42134;SDS011;28312;43.460;11.810;2023-12-20T21:02:24;10.48;;;7.25;;
42134;SDS011;28312;43.460;11.810;2023-12-20T21:06:28;9.82;;;5.82;;
42134;SDS011;28312;43.460;11.810;2023-12-20T21:10:32;6.25;;;3.50;;
42134;SDS011;28312;43.460;11.810;2023-12-20T21:14:36;7.47;;;4.47;;
42134;SDS011;28312;43.460;11.810;2023-12-20T21:18:39;9.13;;;4.10;;
42134;SDS011;28312;43.460;11.810;2023-12-20T21:22:43;8.07;;;4.05;;
42134;SDS011;28312;43.460;11.810;2023-12-20T21:26:48;7.57;;;4.03;;
42134;SDS011;28312;43.460;11.810;2023-12-20T21:30:51;7.05;;;5.40;;
42134;SDS011;28312;43.460;11.810;2023-12-20T21:34:56;5.28;;;3.30;;
42134;SDS011;28312;43.460;11.810;2023-12-20T21:38:59;10.65;;;4.72;;
42134;SDS011;28312;43.460;11.810;2023-12-20T21:43:03;5.50;;;4.13;;
42134;SDS011;28312;43.460;11.810;2023-12-20T21:47:06;7.00;;;4.25;;
42134;SDS011;28312;43.460;11.810;2023-12-20T21:51:10;9.10;;;4.45;;
42134;SDS011;28312;43.460;11.810;2023-12-20T21:55:14;9.45;;;6.20;;
42134;SDS011;28312;43.460;11.810;2023-12-20T21:59:19;4.07;;;3.10;;
42134;SDS011;28312;43.460;11.810;2023-12-20T22:03:25;7.20;;;3.63;;
42134;SDS011;28312;43.460;11.810;2023-12-20T22:07:28;17.70;;;9.57;;
42134;SDS011;28312;43.460;11.810;2023-12-20T22:11:32;7.03;;;3.97;;
42134;SDS011;28312;43.460;11.810;2023-12-20T22:15:37;7.60;;;4.68;;
42134;SDS011;28312;43.460;11.810;2023-12-20T22:19:41;8.00;;;5.45;;
42134;SDS011;28312;43.460;11.810;2023-12-20T22:23:46;8.40;;;4.30;;
42134;SDS011;28312;43.460;11.810;2023-12-20T22:27:51;8.68;;;4.53;;
42134;SDS011;28312;43.460;11.810;2023-12-20T22:31:58;6.30;;;4.15;;
42134;SDS011;28312;43.460;11.810;2023-12-20T22:40:05;8.38;;;5.00;;
42134;SDS011;28312;43.460;11.810;2023-12-20T22:44:09;8.73;;;5.68;;
42134;SDS011;28312;43.460;11.810;2023-12-20T22:48:13;10.15;;;6.82;;
42134;SDS011;28312;43.460;11.810;2023-12-20T22:52:19;5.78;;;3.90;;
42134;SDS011;28312;43.460;11.810;2023-12-20T23:00:32;7.85;;;3.95;;
42134;SDS011;28312;43.460;11.810;2023-12-20T23:04:38;7.97;;;4.00;;
42134;SDS011;28312;43.460;11.810;2023-12-20T23:08:43;9.00;;;5.68;;
42134;SDS011;28312;43.460;11.810;2023-12-20T23:12:49;6.63;;;3.33;;
42134;SDS011;28312;43.460;11.810;2023-12-20T23:16:52;8.13;;;4.45;;
42134;SDS011;28312;43.460;11.810;2023-12-20T23:20:56;7.38;;;4.22;;
42134;SDS011;28312;43.460;11.810;2023-12-20T23:25:01;6.18;;;3.33;;
42134;SDS011;28312;43.460;11.810;2023-12-20T23:29:06;6.50;;;3.83;;
42134;SDS011;28312;43.460;11.810;2023-12-20T23:33:11;6.10;;;3.08;;
42134;SDS011;28312;43.460;11.810;2023-12-20T23:37:15;5.53;;;4.40;;
42134;SDS011;28312;43.460;11.810;2023-12-20T23:41:19;3.90;;;2.63;;
42134;SDS011;28312;43.460;11.810;2023-12-20T23:45:22;5.97;;;3.97;;
42134;SDS011;28312;43.460;11.810;2023-12-20T23:49:27;5.95;;;3.92;;
42134;SDS011;28312;43.460;11.810;2023-12-20T23:53:31;10.45;;;4.68;;
42134;SDS011;28312;43.460;11.810;2023-12-20T23:57:35;7.93;;;4.80;;
